Richmond, Rhode Island
Current Conditions -  °F | °C
As of 8:53 PM on Saturday 22 Nov 2014 (Local Time) from KWST Reporting Station
Overcast Overcast  
Wind Chill: 39°   Ceiling: 5500
Heat Index: 45°   Visibility: 10mi
Dew Point: 28°   Wind: 14mph
Humidity: 52%   Direction: 230°SW
Pressure: 30.17"   Gusts: 22mph
Location:  41.5104°N, 71.7381°W
Report Text: KWST 230153Z AUTO 23012G19KT 10SM OVC055 07/M02 A3017 RMK AO2 SLP218 T00721022
Loading
Personal Weather Stations






























Interactive Weather Map New forecast layout! Learn more

10-Day Weather Forecast

Advertisements
Track Severe Weather on mobile